Knickerbocker, TX (76939)

04:50 CDT le 22 août 2014 (GMT -0500)
Dove Creek | Change Station
CLOSE
Current Station
Stations météorologiques personnelles
Location: San Angelo, TX
Altitude: 2185 ft
Stations météo à proximité

Alt. 2185 ft 31.22 °N, 100.72 °W | Updated 7 seconds ago

Clear
Ciel dégagé
77.4 ° F
Paraît 79 ° F
N
7.2
Vent Variable Vent de SSO
Gusts 9.8 mph

Aujourd'hui
Haut(e) -- | Bas -- ° F
--% Risque de précip.
Hier
Haut(e) -- | Bas -- ° F
Precip. -- pouce
7:12 AM 8:17 PM
Lune descendante, 9% visible
Pression 29.92 pouce
Visibilité 10.0 Miles terrestres
Nuages Ciel dégagé
indice de chaleur 79 ° F
Point de rosée 70 ° F
Humidité 77%
Précipitations 0.00 pouce
Profondeur de la couche neigeuse Non disponible.
UV 0 sur 12
Pollen 7.90 sur 12
Qualité de l'air Non disponible.
Flu Activity Non disponible.
METAR KSJT 220751Z AUTO 17010KT 10SM CLR 27/17 A3000 RMK AO2 SLP130 T02670167

More Conditions Fewer Conditions

Pression 29.92 pouce
Visibilité 10.0 Miles terrestres
Nuages Ciel dégagé
indice de chaleur 79 ° F
Point de rosée 70 ° F
Humidité 77%
Précipitations 0.00 pouce
Profondeur de la couche neigeuse Non disponible.
UV 0 sur 12
Pollen 7.90 sur 12
Qualité de l'air Non disponible.
Flu Activity Non disponible.
METAR KSJT 220751Z AUTO 17010KT 10SM CLR 27/17 A3000 RMK AO2 SLP130 T02670167

More Conditions Fewer Conditions

10-Day Weather Forecast

Almanac

Astronomie

Aug. 22, 2014 Lever Coucher
Temps réel 07:12 CDT 20:17 CDT
Crépuscule civil 06:47 CDT 20:42 CDT
Crépuscule nautique 06:17 CDT 21:12 CDT
Crépuscule astronomique 05:46 CDT 21:43 CDT
Lune 04:41 CDT 18:23 CDT
Durée de lumière visible 13h 55m
Longueur du jour
13h 05m
Tomorrow will be 1m 45s shorter.
Lune descendante, 9% of the Moon is Illuminated
Aujourd'hui
Lune descendante
août 25
Nouveau
Sep 2
Premier quartier
Sep 8
Pleine lune
Sep 15
Dernier quartier

Extrêmes aujourd'hui

State Highs State Lows

Community

WunderPhotos

Upload Photos

1,746,146 Photos téléchargées !

Nearby

Épaisseur de neige

Station Depth Altitude
Pas de nouvelles chutes de neige

Activité sismique

Ville Distance Mag. Time & Date
No recent earthquake activity has been reported nearby.
Minimum magnitude displayed is 2.5.

Températures des eaux côtières

Lieu Température
Aucun rapport de station

Stations météo à proximité